createdAt,value
2022-11-06T00:04:43.373Z,0
2022-11-06T00:11:06.392Z,0
2022-11-06T00:17:26.469Z,0
2022-11-06T00:23:49.388Z,0
2022-11-06T00:30:09.388Z,0
2022-11-06T00:36:32.370Z,0
2022-11-06T00:42:52.396Z,0
2022-11-06T00:49:15.339Z,0
2022-11-06T00:55:35.410Z,0
2022-11-06T01:01:58.494Z,0
2022-11-06T01:08:18.335Z,0
2022-11-06T01:14:41.394Z,0
2022-11-06T01:21:01.322Z,0
2022-11-06T01:27:26.887Z,0
2022-11-06T01:33:44.455Z,0
2022-11-06T01:40:07.333Z,0
2022-11-06T01:46:27.460Z,0
2022-11-06T01:52:50.438Z,0
2022-11-06T01:59:10.409Z,0
2022-11-06T02:05:33.371Z,0
2022-11-06T02:11:53.386Z,0
2022-11-06T02:18:16.583Z,0
2022-11-06T02:24:36.343Z,0
2022-11-06T02:30:59.505Z,0
2022-11-06T02:37:19.465Z,0
2022-11-06T02:43:42.321Z,0
2022-11-06T02:50:02.437Z,0
2022-11-06T02:56:25.428Z,0
2022-11-06T03:02:45.587Z,0
2022-11-06T03:09:08.530Z,0
2022-11-06T03:15:28.369Z,0
2022-11-06T03:21:51.403Z,0
2022-11-06T03:28:11.559Z,0
2022-11-06T03:34:34.370Z,0
2022-11-06T03:40:54.334Z,0
2022-11-06T03:47:17.453Z,0
2022-11-06T03:53:37.348Z,0
2022-11-06T04:00:00.345Z,0
2022-11-06T04:06:20.365Z,0
2022-11-06T04:12:43.340Z,0
2022-11-06T04:19:03.419Z,0
2022-11-06T04:35:13.260Z,0
2022-11-06T04:41:33.570Z,0
2022-11-06T04:47:56.322Z,0
2022-11-06T04:54:16.429Z,0
2022-11-06T05:00:39.409Z,0
2022-11-06T05:06:59.389Z,0
2022-11-06T05:13:22.411Z,0
2022-11-06T05:19:42.372Z,0
2022-11-06T05:26:05.409Z,0
2022-11-06T05:32:25.404Z,0
2022-11-06T05:38:48.419Z,0
2022-11-06T05:45:08.306Z,0
2022-11-06T05:51:31.386Z,0
2022-11-06T05:57:51.414Z,1
2022-11-06T06:04:14.350Z,1
2022-11-06T06:10:34.425Z,3
2022-11-06T06:16:57.383Z,11
2022-11-06T06:23:17.332Z,31
2022-11-06T06:29:40.381Z,62
2022-11-06T06:36:00.360Z,109
2022-11-06T06:42:27.304Z,167
2022-11-06T06:48:43.381Z,228
2022-11-06T06:55:06.361Z,297
2022-11-06T07:01:26.578Z,363
2022-11-06T07:07:49.431Z,427
2022-11-06T07:14:09.368Z,493
2022-11-06T07:20:32.460Z,560
2022-11-06T07:26:52.393Z,614
2022-11-06T07:33:15.375Z,657
2022-11-06T07:39:35.383Z,712
2022-11-06T07:45:58.495Z,773
2022-11-06T07:52:18.480Z,834
2022-11-06T07:58:41.347Z,926
2022-11-06T08:05:01.535Z,1069
2022-11-06T08:11:24.398Z,1182
2022-11-06T08:17:44.326Z,1131
2022-11-06T08:24:07.366Z,1075
2022-11-06T08:30:27.435Z,1140
2022-11-06T08:36:50.400Z,1240
2022-11-06T08:43:10.563Z,1421
2022-11-06T08:49:33.337Z,1435
2022-11-06T08:55:53.692Z,1495
2022-11-06T09:02:16.455Z,1573
2022-11-06T09:08:36.382Z,1707
2022-11-06T09:14:59.359Z,1860
2022-11-06T09:21:19.433Z,2060
2022-11-06T09:27:42.345Z,2329
2022-11-06T09:51:24.341Z,2261
2022-11-06T09:57:44.342Z,2949
2022-11-06T10:04:07.352Z,3504
2022-11-06T10:10:27.392Z,2548
2022-11-06T10:16:50.330Z,2883
2022-11-06T10:23:10.420Z,2063
2022-11-06T10:29:33.353Z,2152
2022-11-06T10:35:53.348Z,1747
2022-11-06T10:42:16.347Z,1890
2022-11-06T10:48:41.034Z,2158
2022-11-06T10:54:59.373Z,2288
2022-11-06T11:01:19.436Z,2099
2022-11-06T11:07:42.355Z,2256
2022-11-06T11:14:02.345Z,2171
2022-11-06T11:20:25.324Z,2189
2022-11-06T11:26:45.437Z,2289
2022-11-06T11:33:08.326Z,2303
2022-11-06T11:39:28.335Z,2178
2022-11-06T11:45:51.423Z,2140
2022-11-06T11:52:11.328Z,2759
2022-11-06T11:58:34.377Z,4054
2022-11-06T12:04:54.379Z,7049
2022-11-06T12:11:17.318Z,6057
2022-11-06T12:17:37.368Z,3208
2022-11-06T12:24:00.339Z,3633
2022-11-06T12:30:20.413Z,2048
2022-11-06T12:36:43.348Z,5027
2022-11-06T12:43:03.366Z,2537
2022-11-06T12:49:26.388Z,2443
2022-11-06T12:55:46.328Z,2507
2022-11-06T13:02:09.563Z,2407
2022-11-06T13:08:29.317Z,2273
2022-11-06T13:14:52.329Z,2431
2022-11-06T13:21:12.372Z,1685
2022-11-06T13:27:35.337Z,1372
2022-11-06T13:33:55.384Z,1531
2022-11-06T13:40:18.629Z,1608
2022-11-06T13:46:38.366Z,2026
2022-11-06T13:53:01.325Z,1423
2022-11-06T13:59:23.916Z,838
2022-11-06T14:05:44.387Z,848
2022-11-06T14:12:04.348Z,669
2022-11-06T14:18:27.418Z,570
2022-11-06T14:24:47.345Z,482
2022-11-06T14:31:12.628Z,386
2022-11-06T14:37:31.240Z,280
2022-11-06T14:43:53.337Z,193
2022-11-06T14:50:13.413Z,207
2022-11-06T14:56:36.362Z,229
2022-11-06T15:02:56.470Z,157
2022-11-06T15:20:09.268Z,62
2022-11-06T15:26:29.311Z,55
2022-11-06T15:32:52.364Z,30
2022-11-06T15:39:12.378Z,23
2022-11-06T15:45:35.311Z,15
2022-11-06T15:51:55.359Z,10
2022-11-06T15:58:18.447Z,5
2022-11-06T16:04:38.613Z,4
2022-11-06T16:11:01.413Z,2
2022-11-06T16:17:21.445Z,1
2022-11-06T16:23:44.443Z,0
2022-11-06T16:30:04.382Z,0
2022-11-06T16:36:27.476Z,0
2022-11-06T16:42:47.426Z,0
2022-11-06T16:49:10.378Z,0
2022-11-06T16:55:30.457Z,0
2022-11-06T17:01:53.483Z,0
2022-11-06T17:08:13.401Z,0
2022-11-06T17:14:36.584Z,0
2022-11-06T17:20:56.378Z,0
2022-11-06T17:27:19.440Z,0
2022-11-06T17:33:39.601Z,0
2022-11-06T17:40:02.473Z,0
2022-11-06T17:46:22.351Z,0
2022-11-06T17:52:45.412Z,0
2022-11-06T17:59:05.390Z,0
2022-11-06T18:05:28.365Z,0
2022-11-06T18:11:48.366Z,0
2022-11-06T18:18:11.712Z,0
2022-11-06T18:24:31.459Z,0
2022-11-06T18:30:54.398Z,0
2022-11-06T18:37:14.360Z,0
2022-11-06T18:43:37.332Z,0
2022-11-06T18:49:57.395Z,0
2022-11-06T18:56:20.345Z,0
2022-11-06T19:02:40.563Z,0
2022-11-06T19:09:03.382Z,0
2022-11-06T19:15:23.410Z,0
2022-11-06T19:21:46.387Z,0
2022-11-06T19:28:06.399Z,0
2022-11-06T19:34:29.344Z,0
2022-11-06T19:40:49.400Z,0
2022-11-06T19:47:12.655Z,0
2022-11-06T19:53:32.328Z,0
2022-11-06T19:59:55.354Z,0
2022-11-06T20:06:15.514Z,0
2022-11-06T20:29:03.375Z,0
2022-11-06T20:35:26.311Z,0
2022-11-06T20:41:46.359Z,0
2022-11-06T20:48:09.419Z,0
2022-11-06T20:54:29.346Z,0
2022-11-06T21:00:52.393Z,0
2022-11-06T21:07:12.340Z,0
2022-11-06T21:13:35.439Z,0
2022-11-06T21:19:55.351Z,0
2022-11-06T21:26:18.471Z,0
2022-11-06T21:32:38.446Z,0
2022-11-06T21:39:01.348Z,0
2022-11-06T21:45:21.415Z,0
2022-11-06T21:51:44.339Z,0
2022-11-06T21:58:04.321Z,0
2022-11-06T22:04:27.430Z,0
2022-11-06T22:10:47.336Z,0
2022-11-06T22:17:10.359Z,0
2022-11-06T22:23:30.380Z,0
2022-11-06T22:29:53.337Z,0
2022-11-06T22:36:13.377Z,0
2022-11-06T22:42:36.441Z,0
2022-11-06T22:48:56.362Z,0
2022-11-06T22:55:19.374Z,0
2022-11-06T23:20:50.486Z,0
2022-11-06T23:27:10.328Z,0
2022-11-06T23:33:33.429Z,0
2022-11-06T23:39:53.440Z,0
2022-11-06T23:46:16.381Z,0
2022-11-06T23:52:36.351Z,0
2022-11-06T23:58:59.403Z,0
